St Pete Beach, Florida
Current Conditions -  °F | °C
As of 8:53 AM on Tuesday 27 Jan 2015 (Local Time) from KSPG Reporting Station
Clear Clear  
Wind Chill: 57°   Ceiling: Unl
Heat Index: 57°   Visibility: 10mi
Dew Point: 43°   Wind: 5mph
Humidity: 59%   Direction: 340°NNW
Pressure: 30.06"   Gusts: NA
Location:  27.7426°N, 82.7481°W
Report Text: KSPG 271353Z 34004KT 10SM CLR 14/06 A3006 RMK AO2 SLP178 T01390061
Loading
Personal Weather Stations






























Interactive Weather Map New forecast layout! Learn more

10-Day Weather Forecast

Advertisements
Track Severe Weather on mobile